Portada
METAR-TAF:

METAR-TAF

Aeroports :

Hangzhou, Xina

latitud: 30-14N, longitud: 120-10E, altitud: 43 m

Observació

L'informe es va fer fa 21 minuts, a les 12:00 UTC
Vent calma
Temperatura 34°C
Humitat 53%
Pressió 1007 hPa
Visibilitat 10 km o més
sense núvols per sota de 1500 mi sense presència de cumulonimbus.

METAR: ZSHC 161200Z 00000MPS CAVOK 34/23 Q1007 NOSIG

Hora: 20:21 (12:21 UTC)

Pronòstic

L'informe es va fer fa 3 hores i 10 minuts, a les 09:11 UTC
Pronòstic vàlid del 16 a les 12 UTC al 17 a les 12 UTC
Vent 6 kt del Sud
Visibilitat: 3000 m
boirina,

TAF: ZSHC 160911Z 1612/1712 18003MPS 3000 BR NSC TX39/1706Z TN28/1621Z

Observacions i pronòstics meteorològics de més de 4000 aeroports (METAR i TAF).

Les estacions disponibles són els punts grocs i vermells al mapa.

Posi el ratolí al punt desitjat per veure el nom de l'estació.

Feu clic per veure les observacions i els pronòstics meteorològics.

Per canviar el mapa: feu clic els botons verds amb una creu de color negre per apropar; al botó verd amb un guió per allunyar la imatge; o en les fletxes verdes per a mapes adjacents.


METAR-TAF: